createdAt,value
2018-02-08T00:02:09.498Z,101270.71
2018-02-08T00:04:36.913Z,101256.61
2018-02-08T00:07:04.493Z,101260.36
2018-02-08T00:09:31.673Z,101254.27
2018-02-08T00:11:58.797Z,101235.66
2018-02-08T00:14:25.840Z,101233.06
2018-02-08T00:16:53.502Z,101243.37
2018-02-08T00:19:20.385Z,101234.75
2018-02-08T00:21:47.926Z,101229.38
2018-02-08T00:24:15.442Z,101224.52
2018-02-08T00:26:42.521Z,101223.02
2018-02-08T00:29:09.980Z,101210.41
2018-02-08T00:31:37.351Z,101204.06
2018-02-08T00:34:04.963Z,101203.45
2018-02-08T00:36:32.543Z,101208.85
2018-02-08T00:38:59.657Z,101208.90
2018-02-08T00:41:27.206Z,101197.76
2018-02-08T00:43:54.706Z,101186.89
2018-02-08T00:46:22.481Z,101176.63
2018-02-08T00:48:50.316Z,101174.84
2018-02-08T00:51:17.606Z,101180.41
2018-02-08T00:53:44.591Z,101187.60
2018-02-08T00:56:11.843Z,101180.95
2018-02-08T00:58:39.233Z,101155.05
2018-02-08T01:01:06.524Z,101155.79
2018-02-08T01:03:33.845Z,101163.20
2018-02-08T01:06:01.410Z,101149.78
2018-02-08T01:08:28.692Z,101147.38
2018-02-08T01:10:55.806Z,101147.38
2018-02-08T01:13:22.855Z,101137.48
2018-02-08T01:15:50.525Z,101149.50
2018-02-08T01:18:17.666Z,101139.51
2018-02-08T01:20:44.673Z,101141.78
2018-02-08T01:23:11.853Z,101118.77
2018-02-08T01:25:38.840Z,101115.07
2018-02-08T01:28:06.205Z,101112.70
2018-02-08T01:30:33.466Z,101098.05
2018-02-08T01:33:00.628Z,101097.89
2018-02-08T01:35:28.213Z,101086.62
2018-02-08T01:37:56.514Z,101070.78
2018-02-08T01:40:23.691Z,101058.04
2018-02-08T01:42:51.085Z,101065.58
2018-02-08T01:45:18.229Z,101054.41
2018-02-08T01:47:45.264Z,101050.73
2018-02-08T01:50:12.612Z,101058.18
2018-02-08T01:52:39.814Z,101044.67
2018-02-08T01:55:07.234Z,101044.96
2018-02-08T01:57:34.954Z,101040.11
2018-02-08T02:00:02.516Z,101048.89
2018-02-08T02:02:29.741Z,101042.47
2018-02-08T02:04:56.899Z,101042.81
2018-02-08T02:07:23.801Z,101038.39
2018-02-08T02:09:51.079Z,101035.27
2018-02-08T02:12:18.518Z,101032.61
2018-02-08T02:14:45.868Z,101030.82
2018-02-08T02:17:13.591Z,101012.18
2018-02-08T02:19:40.885Z,101009.11
2018-02-08T02:22:08.098Z,101007.88
2018-02-08T02:24:35.787Z,100992.27
2018-02-08T02:27:03.005Z,100986.47
2018-02-08T02:29:30.236Z,100990.56
2018-02-08T02:31:57.719Z,100993.22
2018-02-08T02:34:24.809Z,100976.12
2018-02-08T02:36:52.062Z,100977.17
2018-02-08T02:39:19.293Z,100972.08
2018-02-08T02:41:46.733Z,100974.27
2018-02-08T02:44:14.509Z,100974.67
2018-02-08T02:46:42.219Z,100960.03
2018-02-08T02:49:09.344Z,100963.63
2018-02-08T02:51:36.610Z,100945.78
2018-02-08T02:54:03.801Z,100950.52
2018-02-08T02:56:30.775Z,100920.21
2018-02-08T02:58:58.193Z,100937.88
2018-02-08T03:01:25.393Z,100948.41
2018-02-08T03:03:53.503Z,100929.94
2018-02-08T03:06:20.821Z,100932.21
2018-02-08T03:08:48.213Z,100931.44
2018-02-08T03:11:15.402Z,100933.20
2018-02-08T03:13:42.485Z,100928.69
2018-02-08T03:16:10.212Z,100922.28
2018-02-08T03:18:37.493Z,100920.69
2018-02-08T03:21:05.131Z,100925.13
2018-02-08T03:23:32.490Z,100923.12
2018-02-08T03:25:59.698Z,100919.91
2018-02-08T03:28:27.033Z,100925.70
2018-02-08T03:30:56.351Z,100925.01
2018-02-08T03:33:23.849Z,100923.12
2018-02-08T03:35:51.103Z,100907.30
2018-02-08T03:38:18.565Z,100908.63
2018-02-08T03:40:46.220Z,100916.08
2018-02-08T03:43:13.524Z,100901.05
2018-02-08T03:45:40.869Z,100895.38
2018-02-08T03:48:08.063Z,100898.84
2018-02-08T03:50:36.051Z,100898.72
2018-02-08T03:53:03.584Z,100899.42
2018-02-08T03:55:30.818Z,100896.38
2018-02-08T03:57:57.904Z,100898.88
2018-02-08T04:00:25.685Z,100887.78
2018-02-08T04:02:52.725Z,100894.82
2018-02-08T04:05:20.180Z,100888.82
2018-02-08T04:07:47.687Z,100889.75
2018-02-08T04:10:15.261Z,100892.48
2018-02-08T04:12:42.578Z,100901.29
2018-02-08T04:15:10.191Z,100904.07
2018-02-08T04:17:37.497Z,100905.77
2018-02-08T04:20:04.772Z,100908.49
2018-02-08T04:22:32.246Z,100907.56
2018-02-08T04:24:59.166Z,100905.83
2018-02-08T04:27:26.298Z,100908.97
2018-02-08T04:29:53.928Z,100900.94
2018-02-08T04:32:21.391Z,100897.99
2018-02-08T04:34:49.165Z,100895.72
2018-02-08T04:37:16.513Z,100897.89
2018-02-08T04:39:55.848Z,100900.52
2018-02-08T04:42:29.549Z,100891.91
2018-02-08T04:45:08.477Z,100881.72
2018-02-08T04:50:38.444Z,100868.00
2018-02-08T04:53:08.423Z,100862.81
2018-02-08T04:55:37.838Z,100850.02
2018-02-08T04:58:07.138Z,100840.21
2018-02-08T05:00:36.511Z,100843.72
2018-02-08T05:03:06.042Z,100828.38
2018-02-08T05:05:35.397Z,100829.23
2018-02-08T05:08:04.590Z,100818.69
2018-02-08T05:10:33.950Z,100816.45
2018-02-08T05:13:03.725Z,100811.27
2018-02-08T05:15:33.243Z,100805.43
2018-02-08T05:18:03.286Z,100799.89
2018-02-08T05:20:32.595Z,100813.97
2018-02-08T05:23:02.511Z,100825.89
2018-02-08T05:25:32.103Z,100825.28
2018-02-08T05:28:01.620Z,100817.44
2018-02-08T05:30:31.200Z,100825.58
2018-02-08T05:33:00.694Z,100816.98
2018-02-08T05:35:29.985Z,100811.98
2018-02-08T05:37:59.573Z,100810.66
2018-02-08T05:40:29.751Z,100816.57
2018-02-08T05:42:59.173Z,100804.22
2018-02-08T05:45:28.350Z,100799.59
2018-02-08T05:47:58.129Z,100800.73
2018-02-08T05:50:27.502Z,100806.89
2018-02-08T05:52:56.620Z,100831.73
2018-02-08T05:55:26.176Z,100888.88
2018-02-08T05:57:55.311Z,100935.13
2018-02-08T06:00:24.338Z,100957.95
2018-02-08T06:02:53.609Z,100962.83
2018-02-08T06:05:22.950Z,100963.47
2018-02-08T06:07:52.645Z,100985.20
2018-02-08T06:10:21.946Z,100992.38
2018-02-08T06:12:51.132Z,101009.13
2018-02-08T06:15:20.189Z,100993.34
2018-02-08T06:17:49.488Z,101011.05
2018-02-08T06:20:18.801Z,101001.09
2018-02-08T06:22:48.249Z,101002.79
2018-02-08T06:25:17.629Z,101009.28
2018-02-08T06:27:46.978Z,101017.11
2018-02-08T06:30:16.189Z,101006.55
2018-02-08T06:32:45.230Z,100999.81
2018-02-08T06:35:14.375Z,100987.59
2018-02-08T06:37:44.311Z,100979.34
2018-02-08T06:40:13.542Z,100980.39
2018-02-08T06:42:42.657Z,100985.59
2018-02-08T06:45:12.084Z,100978.83
2018-02-08T06:47:41.218Z,100979.05
2018-02-08T06:50:10.672Z,100968.80
2018-02-08T06:52:40.240Z,100968.64
2018-02-08T06:55:09.698Z,100975.31
2018-02-08T06:57:39.218Z,100969.23
2018-02-08T07:00:08.622Z,100960.78
2018-02-08T07:02:37.871Z,100955.94
2018-02-08T07:05:07.101Z,100965.44
2018-02-08T07:07:36.389Z,100951.94
2018-02-08T07:10:05.597Z,100950.63
2018-02-08T07:12:35.944Z,100970.16
2018-02-08T07:15:05.309Z,100957.04
2018-02-08T07:17:34.765Z,100957.73
2018-02-08T07:20:04.461Z,100974.11
2018-02-08T07:22:34.050Z,100971.19
2018-02-08T07:25:03.658Z,100952.69
2018-02-08T07:27:33.362Z,100940.55
2018-02-08T07:30:02.658Z,100952.36
2018-02-08T07:32:32.295Z,100941.05
2018-02-08T07:35:01.554Z,100923.03
2018-02-08T07:37:30.605Z,100933.78
2018-02-08T07:39:59.656Z,100951.94
2018-02-08T07:42:29.284Z,100953.34
2018-02-08T07:44:58.361Z,100947.56
2018-02-08T07:47:27.452Z,100948.93
2018-02-08T07:49:57.224Z,100948.04
2018-02-08T07:52:27.076Z,100938.63
2018-02-08T07:54:56.514Z,100937.38
2018-02-08T07:57:25.713Z,100941.77
2018-02-08T07:59:54.776Z,100948.48
2018-02-08T08:02:23.885Z,100967.25
2018-02-08T08:04:52.862Z,100959.65
2018-02-08T08:07:22.289Z,100978.05
2018-02-08T08:09:51.273Z,100984.36
2018-02-08T08:12:20.460Z,100981.58
2018-02-08T08:14:49.563Z,100991.20
2018-02-08T08:17:18.898Z,100984.56
2018-02-08T08:19:48.361Z,100986.89
2018-02-08T08:22:17.959Z,100994.31
2018-02-08T08:24:47.060Z,100976.34
2018-02-08T08:27:16.634Z,100977.46
2018-02-08T08:29:45.821Z,100981.15
2018-02-08T08:32:15.141Z,100979.00
2018-02-08T08:34:44.163Z,100971.39
2018-02-08T08:37:13.173Z,100967.77
2018-02-08T08:39:42.289Z,100969.50
2018-02-08T08:42:11.872Z,100979.87
2018-02-08T08:44:41.159Z,100982.99
2018-02-08T08:47:10.666Z,100983.95
2018-02-08T08:49:40.148Z,100978.34
2018-02-08T08:52:09.513Z,100967.30
2018-02-08T08:54:38.819Z,100964.33
2018-02-08T08:57:07.741Z,100947.48
2018-02-08T08:59:36.756Z,100952.83
2018-02-08T09:02:06.131Z,100938.66
2018-02-08T09:04:35.650Z,100916.58
2018-02-08T09:07:04.772Z,100929.56
2018-02-08T09:09:33.877Z,100931.16
2018-02-08T09:12:03.470Z,100931.54
2018-02-08T09:14:32.658Z,100932.25
2018-02-08T09:17:02.073Z,100942.27
2018-02-08T09:19:31.410Z,100947.53
2018-02-08T09:22:00.785Z,100940.95
2018-02-08T09:24:30.264Z,100933.59
2018-02-08T09:26:59.413Z,100930.64
2018-02-08T09:29:29.061Z,100932.88
2018-02-08T09:31:58.486Z,100925.32
2018-02-08T09:34:27.704Z,100917.84
2018-02-08T09:36:57.196Z,100925.92
2018-02-08T09:39:26.343Z,100917.89
2018-02-08T09:41:55.802Z,100927.05
2018-02-08T09:44:25.143Z,100926.98
2018-02-08T09:46:54.389Z,100918.97
2018-02-08T09:49:23.534Z,100913.69
2018-02-08T09:51:53.379Z,100906.09
2018-02-08T09:54:23.328Z,100907.77
2018-02-08T09:56:53.033Z,100892.95
2018-02-08T09:59:22.593Z,100903.33
2018-02-08T10:01:52.050Z,100920.84
2018-02-08T10:04:21.589Z,100882.81
2018-02-08T10:06:51.155Z,100914.36
2018-02-08T10:09:20.574Z,100925.95
2018-02-08T10:11:49.890Z,100910.23
2018-02-08T10:14:19.404Z,100898.80
2018-02-08T10:16:48.940Z,100902.55
2018-02-08T10:19:18.798Z,100894.78
2018-02-08T10:21:48.237Z,100883.64
2018-02-08T10:24:17.528Z,100879.36
2018-02-08T10:26:47.018Z,100873.05
2018-02-08T10:29:16.630Z,100875.83
2018-02-08T10:31:45.913Z,100891.84
2018-02-08T10:34:15.324Z,100882.34
2018-02-08T10:36:44.725Z,100885.61
2018-02-08T10:39:14.072Z,100871.66
2018-02-08T10:41:43.541Z,100877.77
2018-02-08T10:44:12.513Z,100876.50
2018-02-08T10:46:41.662Z,100887.17
2018-02-08T10:49:11.737Z,100848.44
2018-02-08T10:51:41.652Z,100870.64
2018-02-08T10:54:10.992Z,100884.19
2018-02-08T10:56:40.634Z,100854.89
2018-02-08T10:59:10.786Z,100877.14
2018-02-08T11:01:40.246Z,100861.14
2018-02-08T11:04:09.661Z,100874.52
2018-02-08T11:06:38.935Z,100898.94
2018-02-08T11:09:08.402Z,100887.48
2018-02-08T11:11:37.625Z,100888.91
2018-02-08T11:14:07.794Z,100891.83
2018-02-08T11:16:36.987Z,100881.65
2018-02-08T11:19:06.461Z,100880.98
2018-02-08T11:21:35.825Z,100868.05
2018-02-08T11:24:04.937Z,100876.63
2018-02-08T11:26:34.565Z,100863.67
2018-02-08T11:29:03.628Z,100878.98
2018-02-08T11:31:32.689Z,100887.68
2018-02-08T11:34:01.849Z,100890.14
2018-02-08T11:36:31.626Z,100877.25
2018-02-08T11:39:01.127Z,100890.39
2018-02-08T11:41:30.461Z,100885.41
2018-02-08T11:44:00.161Z,100886.73
2018-02-08T11:46:29.645Z,100889.28
2018-02-08T11:48:59.047Z,100885.88
2018-02-08T11:51:28.812Z,100900.28
2018-02-08T11:53:58.166Z,100888.14
2018-02-08T11:56:27.768Z,100883.10
2018-02-08T11:58:57.624Z,100902.00
2018-02-08T12:01:26.989Z,100882.46
2018-02-08T12:03:56.641Z,100874.41
2018-02-08T12:06:26.113Z,100887.48
2018-02-08T12:08:55.656Z,100876.76
2018-02-08T12:11:25.681Z,100882.23
2018-02-08T12:13:54.884Z,100853.30
2018-02-08T12:16:24.286Z,100888.95
2018-02-08T12:18:53.534Z,100872.22
2018-02-08T12:21:23.045Z,100883.56
2018-02-08T12:23:52.697Z,100870.19
2018-02-08T12:26:22.305Z,100890.93
2018-02-08T12:28:51.830Z,100874.77
2018-02-08T12:31:21.097Z,100867.27
2018-02-08T12:33:50.366Z,100873.82
2018-02-08T12:36:19.593Z,100872.34
2018-02-08T12:38:48.893Z,100868.34
2018-02-08T12:41:18.664Z,100871.30
2018-02-08T12:43:47.858Z,100870.72
2018-02-08T12:46:17.342Z,100864.23
2018-02-08T12:48:46.872Z,100892.55
2018-02-08T12:51:16.795Z,100864.37
2018-02-08T12:53:46.443Z,100867.75
2018-02-08T12:56:15.874Z,100859.65
2018-02-08T12:58:44.996Z,100866.66
2018-02-08T13:01:14.362Z,100880.09
2018-02-08T13:03:44.159Z,100869.98
2018-02-08T13:06:13.946Z,100854.87
2018-02-08T13:08:43.301Z,100859.71
2018-02-08T13:11:12.403Z,100865.69
2018-02-08T13:13:41.730Z,100860.53
2018-02-08T13:16:10.878Z,100857.03
2018-02-08T13:18:40.553Z,100862.14
2018-02-08T13:21:10.240Z,100858.60
2018-02-08T13:23:39.860Z,100867.08
2018-02-08T13:26:09.334Z,100853.34
2018-02-08T13:28:38.975Z,100885.39
2018-02-08T13:31:08.272Z,100847.21
2018-02-08T13:33:37.546Z,100846.09
2018-02-08T13:36:07.218Z,100855.86
2018-02-08T13:38:36.536Z,100870.94
2018-02-08T13:41:05.816Z,100863.95
2018-02-08T13:43:35.331Z,100863.36
2018-02-08T13:46:04.948Z,100864.91
2018-02-08T13:48:34.794Z,100854.41
2018-02-08T13:51:09.615Z,100871.61
2018-02-08T13:56:53.191Z,100878.11
2018-02-08T14:02:34.058Z,100858.53
2018-02-08T14:05:03.290Z,100868.55
2018-02-08T14:07:32.409Z,100882.23
2018-02-08T14:10:01.797Z,100892.28
2018-02-08T14:12:31.116Z,100893.30
2018-02-08T14:15:00.934Z,100878.72
2018-02-08T14:17:30.478Z,100874.89
2018-02-08T14:20:00.119Z,100869.79
2018-02-08T14:22:29.337Z,100894.44
2018-02-08T14:24:59.282Z,100878.09
2018-02-08T14:27:28.942Z,100888.98
2018-02-08T14:29:58.207Z,100857.50
2018-02-08T14:32:27.544Z,100867.52
2018-02-08T14:34:56.854Z,100884.87
2018-02-08T14:37:26.236Z,100870.72
2018-02-08T14:39:55.916Z,100885.64
2018-02-08T14:42:25.131Z,100888.78
2018-02-08T14:44:54.581Z,100845.56
2018-02-08T14:47:23.766Z,100871.94
2018-02-08T14:49:52.739Z,100854.26
2018-02-08T14:52:22.194Z,100866.66
2018-02-08T14:54:51.151Z,100890.72
2018-02-08T14:57:20.389Z,100893.14
2018-02-08T14:59:49.813Z,100902.79
2018-02-08T15:02:19.517Z,100896.38
2018-02-08T15:04:48.788Z,100926.48
2018-02-08T15:07:18.046Z,100897.80
2018-02-08T15:09:47.142Z,100905.17
2018-02-08T15:12:16.802Z,100903.29
2018-02-08T15:14:46.180Z,100910.50
2018-02-08T15:17:15.733Z,100917.67
2018-02-08T15:19:45.123Z,100912.78
2018-02-08T15:22:14.390Z,100920.58
2018-02-08T15:24:43.413Z,100925.13
2018-02-08T15:27:12.713Z,100923.27
2018-02-08T15:29:42.426Z,100926.00
2018-02-08T15:32:12.011Z,100913.53
2018-02-08T15:34:41.401Z,100916.91
2018-02-08T15:37:10.520Z,100930.36
2018-02-08T15:39:39.602Z,100937.85
2018-02-08T15:42:09.110Z,100935.40
2018-02-08T15:44:38.357Z,100942.55
2018-02-08T15:47:07.587Z,100945.38
2018-02-08T15:49:37.224Z,100937.38
2018-02-08T15:52:06.262Z,100936.47
2018-02-08T15:54:35.516Z,100937.98
2018-02-08T15:57:04.902Z,100948.31
2018-02-08T15:59:34.410Z,100950.47
2018-02-08T16:02:03.572Z,100951.76
2018-02-08T16:04:33.281Z,100945.41
2018-02-08T16:07:02.273Z,100951.81
2018-02-08T16:09:31.682Z,100952.00
2018-02-08T16:12:01.620Z,100954.35
2018-02-08T16:14:31.406Z,100960.97
2018-02-08T16:17:00.952Z,100965.23
2018-02-08T16:19:30.392Z,100973.78
2018-02-08T16:21:59.542Z,100968.81
2018-02-08T16:24:28.571Z,100970.59
2018-02-08T16:26:57.527Z,100976.98
2018-02-08T16:29:26.960Z,100976.23
2018-02-08T16:31:56.458Z,100983.11
2018-02-08T16:34:25.577Z,100983.05
2018-02-08T16:36:54.828Z,100982.16
2018-02-08T16:39:23.906Z,100970.43
2018-02-08T16:41:53.256Z,100980.36
2018-02-08T16:44:22.595Z,100981.35
2018-02-08T16:46:51.904Z,100976.95
2018-02-08T16:49:20.948Z,100982.14
2018-02-08T16:51:50.274Z,100986.55
2018-02-08T16:54:19.788Z,100986.49
2018-02-08T16:56:49.036Z,100988.33
2018-02-08T16:59:18.372Z,100984.83
2018-02-08T17:01:47.832Z,100975.12
2018-02-08T17:04:16.987Z,100975.91
2018-02-08T17:06:46.117Z,100995.61
2018-02-08T17:09:15.105Z,100988.35
2018-02-08T17:11:44.217Z,100989.91
2018-02-08T17:14:13.556Z,100991.67
2018-02-08T17:16:42.842Z,101000.58
2018-02-08T17:19:11.868Z,101000.09
2018-02-08T17:21:41.378Z,101001.73
2018-02-08T17:24:11.585Z,101000.44
2018-02-08T17:26:40.864Z,100996.48
2018-02-08T17:29:10.078Z,100996.17
2018-02-08T17:31:39.168Z,101003.58
2018-02-08T17:34:08.285Z,101005.28
2018-02-08T17:36:37.577Z,101005.05
2018-02-08T17:39:06.728Z,101008.60
2018-02-08T17:41:35.918Z,101004.03
2018-02-08T17:44:04.988Z,101010.30
2018-02-08T17:46:34.474Z,101015.44
2018-02-08T17:49:03.817Z,101023.05
2018-02-08T17:51:32.926Z,101020.09
2018-02-08T17:54:01.925Z,101017.25
2018-02-08T17:56:30.977Z,101009.64
2018-02-08T17:59:00.174Z,101006.14
2018-02-08T18:01:29.498Z,101015.49
2018-02-08T18:03:58.566Z,101009.32
2018-02-08T18:06:27.641Z,101014.14
2018-02-08T18:08:57.134Z,101022.31
2018-02-08T18:11:26.474Z,101028.33
2018-02-08T18:13:55.471Z,101025.66
2018-02-08T18:16:24.730Z,101028.42
2018-02-08T18:18:53.955Z,101027.77
2018-02-08T18:21:23.038Z,101029.13
2018-02-08T18:23:52.442Z,101031.48
2018-02-08T18:26:22.205Z,101047.05
2018-02-08T18:28:51.416Z,101049.44
2018-02-08T18:31:20.423Z,101042.14
2018-02-08T18:33:49.691Z,101045.69
2018-02-08T18:36:19.129Z,101044.17
2018-02-08T18:38:48.471Z,101051.81
2018-02-08T18:41:17.832Z,101048.44
2018-02-08T18:43:47.301Z,101052.12
2018-02-08T18:46:16.378Z,101054.77
2018-02-08T18:48:45.909Z,101069.62
2018-02-08T18:51:15.141Z,101065.75
2018-02-08T18:53:44.356Z,101068.52
2018-02-08T18:56:13.698Z,101060.27
2018-02-08T18:58:42.769Z,101064.34
2018-02-08T19:01:11.796Z,101069.31
2018-02-08T19:03:41.028Z,101065.32
2018-02-08T19:06:10.258Z,101068.59
2018-02-08T19:08:39.585Z,101063.18
2018-02-08T19:11:09.352Z,101067.00
2018-02-08T19:13:38.766Z,101080.33
2018-02-08T19:16:07.957Z,101073.92
2018-02-08T19:18:37.227Z,101075.03
2018-02-08T19:21:06.585Z,101080.81
2018-02-08T19:23:35.733Z,101083.31
2018-02-08T19:26:05.133Z,101082.06
2018-02-08T19:28:34.256Z,101090.79
2018-02-08T19:31:03.634Z,101094.48
2018-02-08T19:33:32.987Z,101103.80
2018-02-08T19:36:02.068Z,101103.94
2018-02-08T19:38:31.718Z,101098.96
2018-02-08T19:41:01.118Z,101093.26
2018-02-08T19:43:30.723Z,101113.28
2018-02-08T19:46:00.212Z,101114.67
2018-02-08T19:48:34.181Z,101117.82
2018-02-08T19:51:03.811Z,101131.59
2018-02-08T19:53:33.145Z,101121.05
2018-02-08T19:56:02.714Z,101122.62
2018-02-08T19:58:32.177Z,101091.66
2018-02-08T20:01:02.228Z,101106.02
2018-02-08T20:03:31.688Z,101104.55
2018-02-08T20:06:00.971Z,101095.44
2018-02-08T20:08:30.933Z,101102.77
2018-02-08T20:11:00.514Z,101107.95
2018-02-08T20:13:29.879Z,101092.75
2018-02-08T20:15:59.307Z,101081.72
2018-02-08T20:18:28.997Z,101080.31
2018-02-08T20:20:58.392Z,101082.59
2018-02-08T20:23:27.709Z,101090.27
2018-02-08T20:25:57.008Z,101085.63
2018-02-08T20:28:26.351Z,101090.12
2018-02-08T20:31:01.029Z,101091.00
2018-02-08T20:33:30.478Z,101092.64
2018-02-08T20:35:59.674Z,101088.37
2018-02-08T20:38:29.034Z,101083.41
2018-02-08T20:40:58.752Z,101090.00
2018-02-08T20:43:35.725Z,101093.84
2018-02-08T20:46:05.240Z,101090.31
2018-02-08T20:48:34.545Z,101089.87
2018-02-08T20:51:03.819Z,101080.73
2018-02-08T20:53:33.336Z,101080.80
2018-02-08T20:56:02.838Z,101085.88
2018-02-08T20:58:32.121Z,101087.84
2018-02-08T21:01:01.426Z,101083.55
2018-02-08T21:03:30.736Z,101081.50
2018-02-08T21:05:59.871Z,101077.77
2018-02-08T21:08:29.501Z,101087.79
2018-02-08T21:10:58.929Z,101085.31
2018-02-08T21:13:28.240Z,101091.41
2018-02-08T21:15:57.642Z,101082.70
2018-02-08T21:18:26.943Z,101078.76
2018-02-08T21:20:56.121Z,101077.70
2018-02-08T21:23:25.341Z,101086.03
2018-02-08T21:25:54.910Z,101094.98
2018-02-08T21:28:24.460Z,101082.63
2018-02-08T21:30:54.441Z,101080.84
2018-02-08T21:33:23.929Z,101076.01
2018-02-08T21:35:53.778Z,101077.11
2018-02-08T21:38:23.362Z,101072.22
2018-02-08T21:40:52.939Z,101082.22
2018-02-08T21:43:22.677Z,101083.91
2018-02-08T21:45:51.999Z,101078.48
2018-02-08T21:48:21.522Z,101078.00
2018-02-08T21:50:51.309Z,101080.64
2018-02-08T21:53:21.188Z,101084.13
2018-02-08T21:55:51.065Z,101080.09
2018-02-08T21:58:20.416Z,101077.30
2018-02-08T22:00:49.665Z,101080.59
2018-02-08T22:03:19.238Z,101090.09
2018-02-08T22:05:48.988Z,101086.39
2018-02-08T22:08:18.867Z,101090.87
2018-02-08T22:10:48.299Z,101092.17
2018-02-08T22:13:17.732Z,101087.73
2018-02-08T22:15:47.281Z,101093.08
2018-02-08T22:18:16.513Z,101081.40
2018-02-08T22:20:45.992Z,101084.82
2018-02-08T22:23:15.276Z,101083.22
2018-02-08T22:25:44.760Z,101086.05
2018-02-08T22:28:14.189Z,101085.27
2018-02-08T22:30:43.642Z,101081.38
2018-02-08T22:33:12.919Z,101081.70
2018-02-08T22:35:42.208Z,101085.17
2018-02-08T22:38:11.553Z,101085.34
2018-02-08T22:40:40.833Z,101089.35
2018-02-08T22:43:10.322Z,101079.62
2018-02-08T22:45:39.644Z,101081.88
2018-02-08T22:48:08.987Z,101080.84
2018-02-08T22:50:38.761Z,101080.11
2018-02-08T22:53:08.053Z,101088.11
2018-02-08T22:55:37.209Z,101094.58
2018-02-08T22:58:06.516Z,101088.93
2018-02-08T23:00:35.942Z,101089.10
2018-02-08T23:03:05.004Z,101084.57
2018-02-08T23:05:34.348Z,101079.80
2018-02-08T23:08:03.722Z,101076.02
2018-02-08T23:10:33.369Z,101083.55
2018-02-08T23:13:02.962Z,101080.05
2018-02-08T23:15:32.390Z,101084.31
2018-02-08T23:18:01.995Z,101071.81
2018-02-08T23:20:31.306Z,101072.72
2018-02-08T23:23:00.863Z,101071.95
2018-02-08T23:25:30.289Z,101063.83
2018-02-08T23:27:59.860Z,101066.66
2018-02-08T23:30:29.290Z,101064.00
2018-02-08T23:32:58.680Z,101060.62
2018-02-08T23:35:28.010Z,101071.64
2018-02-08T23:37:58.633Z,101076.44
2018-02-08T23:40:28.762Z,101089.89
2018-02-08T23:42:58.170Z,101095.81
2018-02-08T23:45:27.431Z,101102.77
2018-02-08T23:47:57.010Z,101108.68
2018-02-08T23:50:26.888Z,101110.28
2018-02-08T23:52:56.251Z,101105.97
2018-02-08T23:55:25.413Z,101118.35
2018-02-08T23:57:55.098Z,101131.00
